createdAt,value
2023-04-26T00:01:22.959Z,99.90
2023-04-26T00:04:14.990Z,99.90
2023-04-26T00:07:07.934Z,99.90
2023-04-26T00:09:59.135Z,99.90
2023-04-26T00:15:34.793Z,99.90
2023-04-26T00:18:25.945Z,99.90
2023-04-26T00:21:17.154Z,99.90
2023-04-26T00:24:09.740Z,99.90
2023-04-26T00:27:01.695Z,99.90
2023-04-26T00:29:53.181Z,99.90
2023-04-26T00:32:44.498Z,99.90
2023-04-26T00:35:35.967Z,99.90
2023-04-26T00:38:27.557Z,99.90
2023-04-26T00:41:18.792Z,99.90
2023-04-26T00:44:10.105Z,99.90
2023-04-26T00:47:01.826Z,99.90
2023-04-26T00:49:53.462Z,99.90
2023-04-26T00:52:46.405Z,99.90
2023-04-26T00:55:38.394Z,99.90
2023-04-26T00:58:30.154Z,99.90
2023-04-26T01:01:22.893Z,99.90
2023-04-26T01:04:15.177Z,99.90
2023-04-26T01:07:06.582Z,99.90
2023-04-26T01:09:59.178Z,99.90
2023-04-26T01:12:52.498Z,99.90
2023-04-26T01:15:46.869Z,99.90
2023-04-26T01:18:38.269Z,99.90
2023-04-26T01:24:12.873Z,99.90
2023-04-26T01:27:04.386Z,99.90
2023-04-26T01:29:56.252Z,99.90
2023-04-26T01:32:50.489Z,99.90
2023-04-26T01:35:42.007Z,99.90
2023-04-26T01:38:33.412Z,99.90
2023-04-26T01:41:25.354Z,99.90
2023-04-26T01:46:54.979Z,99.90
2023-04-26T01:49:48.373Z,99.90
2023-04-26T01:52:39.778Z,99.90
2023-04-26T01:55:31.324Z,99.90
2023-04-26T01:58:22.685Z,99.90
2023-04-26T02:01:15.381Z,99.90
2023-04-26T02:04:08.608Z,99.90
2023-04-26T02:07:00.117Z,99.90
2023-04-26T02:09:51.812Z,99.90
2023-04-26T02:12:43.141Z,99.90
2023-04-26T02:15:34.544Z,99.90
2023-04-26T02:18:26.200Z,99.90
2023-04-26T02:21:19.338Z,99.90
2023-04-26T02:24:12.472Z,99.90
2023-04-26T02:27:05.081Z,99.90
2023-04-26T02:29:58.339Z,99.90
2023-04-26T02:32:49.813Z,99.90
2023-04-26T02:35:42.017Z,99.90
2023-04-26T02:38:35.896Z,99.90
2023-04-26T02:41:28.608Z,99.90
2023-04-26T02:44:19.789Z,99.90
2023-04-26T02:47:11.459Z,99.90
2023-04-26T02:50:03.401Z,99.90
2023-04-26T02:52:55.391Z,99.90
2023-04-26T02:55:46.855Z,99.90
2023-04-26T02:58:38.157Z,99.90
2023-04-26T03:01:29.742Z,99.90
2023-04-26T03:04:21.490Z,99.90
2023-04-26T03:07:12.685Z,99.90
2023-04-26T03:10:05.110Z,99.90
2023-04-26T03:12:57.383Z,99.90
2023-04-26T03:15:49.991Z,99.90
2023-04-26T03:18:41.401Z,99.90
2023-04-26T03:21:33.569Z,99.90
2023-04-26T03:24:24.850Z,99.90
2023-04-26T03:27:16.199Z,99.90
2023-04-26T03:30:10.699Z,99.90
2023-04-26T03:33:02.311Z,99.90
2023-04-26T03:35:53.646Z,99.90
2023-04-26T03:38:45.298Z,99.90
2023-04-26T03:41:39.702Z,99.90
2023-04-26T03:44:31.634Z,99.90
2023-04-26T03:47:25.823Z,99.90
2023-04-26T03:50:20.863Z,99.90
2023-04-26T03:53:13.653Z,99.90
2023-04-26T03:56:07.022Z,99.90
2023-04-26T03:59:01.780Z,99.90
2023-04-26T04:01:54.975Z,99.90
2023-04-26T04:04:48.548Z,99.90
2023-04-26T04:07:40.980Z,99.90
2023-04-26T04:10:34.010Z,99.90
2023-04-26T04:13:26.161Z,99.90
2023-04-26T04:16:21.064Z,99.90
2023-04-26T04:19:33.096Z,99.90
2023-04-26T04:22:26.471Z,99.90
2023-04-26T04:25:22.244Z,99.90
2023-04-26T04:28:19.290Z,99.90
2023-04-26T04:31:11.488Z,99.90
2023-04-26T04:34:04.890Z,99.90
2023-04-26T04:37:00.138Z,99.90
2023-04-26T04:39:53.669Z,99.90
2023-04-26T04:42:47.338Z,99.90
2023-04-26T04:45:45.797Z,99.90
2023-04-26T04:48:40.078Z,99.90
2023-04-26T04:51:34.584Z,99.90
2023-04-26T04:54:27.397Z,99.90
2023-04-26T04:57:22.707Z,99.90
2023-04-26T05:00:21.150Z,99.90
2023-04-26T05:03:17.713Z,99.90
2023-04-26T05:06:10.530Z,99.90
2023-04-26T05:09:03.344Z,99.90
2023-04-26T05:11:57.054Z,99.90
2023-04-26T05:14:50.451Z,99.90
2023-04-26T05:17:43.832Z,99.90
2023-04-26T05:20:44.869Z,99.90
2023-04-26T05:23:38.554Z,99.90
2023-04-26T05:26:32.816Z,99.90
2023-04-26T05:29:26.845Z,99.90
2023-04-26T05:32:24.131Z,99.90
2023-04-26T05:35:18.279Z,99.90
2023-04-26T05:38:10.957Z,99.90
2023-04-26T05:41:02.214Z,99.90
2023-04-26T05:43:53.870Z,99.90
2023-04-26T05:46:45.571Z,99.90
2023-04-26T05:49:37.427Z,99.90
2023-04-26T05:52:29.428Z,99.90
2023-04-26T05:55:22.611Z,99.90
2023-04-26T05:58:14.329Z,99.90
2023-04-26T06:01:06.383Z,99.90
2023-04-26T06:04:00.585Z,99.90
2023-04-26T06:06:52.635Z,99.90
2023-04-26T06:09:44.975Z,99.90
2023-04-26T06:12:37.054Z,99.90
2023-04-26T06:15:29.631Z,99.90
2023-04-26T06:18:21.489Z,99.90
2023-04-26T06:21:13.103Z,99.90
2023-04-26T06:24:04.468Z,99.90
2023-04-26T06:26:55.669Z,99.90
2023-04-26T06:29:47.928Z,99.90
2023-04-26T06:32:42.553Z,99.90
2023-04-26T06:35:34.234Z,99.90
2023-04-26T06:38:26.078Z,99.90
2023-04-26T06:41:17.344Z,99.90
2023-04-26T06:44:09.869Z,99.90
2023-04-26T06:47:02.816Z,99.90
2023-04-26T06:49:55.749Z,99.90
2023-04-26T06:52:47.314Z,99.90
2023-04-26T06:55:38.876Z,99.90
2023-04-26T06:58:29.952Z,99.90
2023-04-26T07:01:21.210Z,99.90
2023-04-26T07:04:12.673Z,99.90
2023-04-26T07:07:04.457Z,99.90
2023-04-26T07:09:56.316Z,99.90
2023-04-26T07:12:47.780Z,99.90
2023-04-26T07:15:39.277Z,99.90
2023-04-26T07:18:30.629Z,99.90
2023-04-26T07:21:22.083Z,99.90
2023-04-26T07:24:13.978Z,99.90
2023-04-26T07:27:07.873Z,99.90
2023-04-26T07:29:59.569Z,99.90
2023-04-26T07:32:53.681Z,99.90
2023-04-26T07:35:45.598Z,99.90
2023-04-26T07:38:44.247Z,99.90
2023-04-26T07:41:38.683Z,99.90
2023-04-26T07:44:30.467Z,99.90
2023-04-26T07:47:28.937Z,99.90
2023-04-26T07:50:22.152Z,99.90
2023-04-26T07:53:13.735Z,99.90
2023-04-26T07:56:07.065Z,99.90
2023-04-26T07:58:58.499Z,99.90
2023-04-26T08:01:50.043Z,99.90
2023-04-26T08:04:42.506Z,99.90
2023-04-26T08:07:33.906Z,99.90
2023-04-26T08:10:25.538Z,99.90
2023-04-26T08:13:16.982Z,99.90
2023-04-26T08:16:08.839Z,99.90
2023-04-26T08:19:02.212Z,99.90
2023-04-26T08:21:53.191Z,99.90
2023-04-26T08:24:46.349Z,99.90
2023-04-26T08:27:40.073Z,99.90
2023-04-26T08:30:32.796Z,99.90
2023-04-26T08:33:24.110Z,99.90
2023-04-26T08:36:18.889Z,99.90
2023-04-26T08:39:12.447Z,99.90
2023-04-26T08:44:49.325Z,99.90
2023-04-26T08:47:45.830Z,99.90
2023-04-26T08:50:38.537Z,99.90
2023-04-26T08:53:35.094Z,99.90
2023-04-26T08:56:27.809Z,99.90
2023-04-26T08:59:21.093Z,99.90
2023-04-26T09:02:15.095Z,99.90
2023-04-26T09:05:08.499Z,99.90
2023-04-26T09:08:03.926Z,99.90
2023-04-26T09:10:55.201Z,99.90
2023-04-26T09:13:46.743Z,99.90
2023-04-26T09:16:38.922Z,99.90
2023-04-26T09:19:38.652Z,99.90
2023-04-26T09:22:35.003Z,99.90
2023-04-26T09:25:31.579Z,99.90
2023-04-26T09:28:24.828Z,99.90
2023-04-26T09:31:22.866Z,99.90
2023-04-26T09:34:15.131Z,99.90
2023-04-26T09:37:06.938Z,99.90
2023-04-26T09:39:58.167Z,99.90
2023-04-26T09:42:51.491Z,99.90
2023-04-26T09:45:51.583Z,99.90
2023-04-26T09:48:42.900Z,99.90
2023-04-26T09:51:34.421Z,99.90
2023-04-26T09:54:33.516Z,99.90
2023-04-26T09:57:24.880Z,99.90
2023-04-26T10:00:19.723Z,99.90
2023-04-26T10:03:12.110Z,99.90
2023-04-26T10:06:04.671Z,99.90
2023-04-26T10:08:58.324Z,99.90
2023-04-26T10:11:50.098Z,99.90
2023-04-26T10:14:42.208Z,99.90
2023-04-26T10:17:34.064Z,99.90
2023-04-26T10:20:28.095Z,99.90
2023-04-26T10:23:22.667Z,99.90
2023-04-26T10:26:52.172Z,99.90
2023-04-26T10:33:29.298Z,99.90
2023-04-26T10:36:22.593Z,99.90
2023-04-26T10:39:25.135Z,99.90
2023-04-26T10:42:27.397Z,99.90
2023-04-26T10:45:30.455Z,99.90
2023-04-26T10:48:23.261Z,99.90
2023-04-26T10:51:15.764Z,99.90
2023-04-26T10:54:07.294Z,99.90
2023-04-26T10:56:59.131Z,99.90
2023-04-26T11:00:33.180Z,99.90
2023-04-26T11:03:25.928Z,99.90
2023-04-26T11:06:18.465Z,99.90
2023-04-26T11:09:36.356Z,99.90
2023-04-26T11:12:27.786Z,99.90
2023-04-26T11:15:19.087Z,99.80
2023-04-26T11:18:10.163Z,99.90
2023-04-26T11:21:02.756Z,99.20
2023-04-26T11:23:58.117Z,99.20
2023-04-26T11:29:35.174Z,95.00
2023-04-26T11:32:26.169Z,93.60
2023-04-26T11:35:23.826Z,93.50
2023-04-26T11:38:15.484Z,93.10
2023-04-26T11:41:07.164Z,92.40
2023-04-26T11:43:59.864Z,90.70
2023-04-26T11:46:51.986Z,91.00
2023-04-26T11:49:43.710Z,85.90
2023-04-26T11:52:35.663Z,73.30
2023-04-26T11:55:33.360Z,74.80
2023-04-26T11:58:24.769Z,70.30
2023-04-26T12:01:23.656Z,72.50
2023-04-26T12:04:15.108Z,65.90
2023-04-26T12:07:08.707Z,59.10
2023-04-26T12:10:01.673Z,58.50
2023-04-26T12:12:54.639Z,60.50
2023-04-26T12:15:47.655Z,58.90
2023-04-26T12:18:38.666Z,56.80
2023-04-26T12:21:31.160Z,59.70
2023-04-26T12:24:27.331Z,60.40
2023-04-26T12:27:23.757Z,59.40
2023-04-26T12:30:16.319Z,57.60
2023-04-26T12:33:16.560Z,59.90
2023-04-26T12:36:02.692Z,65.50
2023-04-26T12:38:54.500Z,69.80
2023-04-26T12:41:47.054Z,71.00
2023-04-26T12:44:38.455Z,70.10
2023-04-26T12:50:12.938Z,67.10
2023-04-26T12:53:04.589Z,64.50
2023-04-26T12:55:56.216Z,64.40
2023-04-26T12:58:48.110Z,63.90
2023-04-26T13:01:39.838Z,61.60
2023-04-26T13:04:31.670Z,61.30
2023-04-26T13:07:23.784Z,60.50
2023-04-26T13:10:15.604Z,58.40
2023-04-26T13:13:07.502Z,55.60
2023-04-26T13:16:01.567Z,53.50
2023-04-26T13:18:52.800Z,52.80
2023-04-26T13:21:44.415Z,51.70
2023-04-26T13:24:36.149Z,51.60
2023-04-26T13:27:29.811Z,51.10
2023-04-26T13:33:01.318Z,51.20
2023-04-26T13:38:33.687Z,49.30
2023-04-26T13:41:25.319Z,47.00
2023-04-26T13:44:16.975Z,45.80
2023-04-26T13:47:08.749Z,43.40
2023-04-26T13:50:00.318Z,41.30
2023-04-26T13:52:53.245Z,40.80
2023-04-26T13:55:44.307Z,41.00
2023-04-26T13:58:35.970Z,42.80
2023-04-26T14:01:27.560Z,43.30
2023-04-26T14:04:19.149Z,43.20
2023-04-26T14:07:12.877Z,41.70
2023-04-26T14:10:04.685Z,43.20
2023-04-26T14:12:56.592Z,40.70
2023-04-26T14:15:48.435Z,42.10
2023-04-26T14:18:42.404Z,42.20
2023-04-26T14:21:33.871Z,40.70
2023-04-26T14:24:25.350Z,39.10
2023-04-26T14:27:17.381Z,40.90
2023-04-26T14:30:11.084Z,46.50
2023-04-26T14:33:02.730Z,49.50
2023-04-26T14:35:54.371Z,51.20
2023-04-26T14:38:46.592Z,52.80
2023-04-26T14:44:18.429Z,51.20
2023-04-26T14:47:10.137Z,50.80
2023-04-26T14:50:02.082Z,50.70
2023-04-26T14:52:53.568Z,50.40
2023-04-26T14:55:45.895Z,50.00
2023-04-26T14:58:37.520Z,50.10
2023-04-26T15:01:29.432Z,50.80
2023-04-26T15:04:21.147Z,50.60
2023-04-26T15:07:24.482Z,51.20
2023-04-26T15:10:08.026Z,47.40
2023-04-26T15:15:39.977Z,51.90
2023-04-26T15:18:32.031Z,53.20
2023-04-26T15:21:23.809Z,54.00
2023-04-26T15:24:15.640Z,54.40
2023-04-26T15:27:08.188Z,54.70
2023-04-26T15:29:59.623Z,53.80
2023-04-26T15:32:52.154Z,54.00
2023-04-26T15:35:43.909Z,54.10
2023-04-26T15:38:36.698Z,53.90
2023-04-26T15:41:28.419Z,54.50
2023-04-26T15:44:20.149Z,55.50
2023-04-26T15:47:11.615Z,56.20
2023-04-26T15:50:05.417Z,54.80
2023-04-26T15:52:58.311Z,54.70
2023-04-26T15:55:49.517Z,54.40
2023-04-26T15:58:42.292Z,53.70
2023-04-26T16:01:34.594Z,54.80
2023-04-26T16:04:26.374Z,55.20
2023-04-26T16:07:18.239Z,55.50
2023-04-26T16:10:12.872Z,56.10
2023-04-26T16:13:04.170Z,56.50
2023-04-26T16:15:56.052Z,56.90
2023-04-26T16:18:48.003Z,57.40
2023-04-26T16:21:40.399Z,58.30
2023-04-26T16:24:31.979Z,58.00
2023-04-26T16:27:23.320Z,58.90
2023-04-26T16:30:16.336Z,59.70
2023-04-26T16:33:10.102Z,60.30
2023-04-26T16:36:01.759Z,60.50
2023-04-26T16:38:53.204Z,61.20
2023-04-26T16:41:44.461Z,61.50
2023-04-26T16:44:35.949Z,61.70
2023-04-26T16:47:27.446Z,62.70
2023-04-26T16:50:18.997Z,63.10
2023-04-26T16:53:10.876Z,63.70
2023-04-26T16:56:02.606Z,63.90
2023-04-26T16:58:53.970Z,63.90
2023-04-26T17:04:26.354Z,63.40
2023-04-26T17:07:18.237Z,63.60
2023-04-26T17:10:11.189Z,63.60
2023-04-26T17:13:03.677Z,64.00
2023-04-26T17:15:57.348Z,64.00
2023-04-26T17:18:50.152Z,64.30
2023-04-26T17:21:41.447Z,64.80
2023-04-26T17:24:32.934Z,66.00
2023-04-26T17:27:25.159Z,66.30
2023-04-26T17:30:18.392Z,66.70
2023-04-26T17:33:09.530Z,66.60
2023-04-26T17:36:02.091Z,66.80
2023-04-26T17:38:53.387Z,66.50
2023-04-26T17:41:44.719Z,66.40
2023-04-26T17:44:36.040Z,66.50
2023-04-26T17:47:27.181Z,66.80
2023-04-26T17:50:20.346Z,67.10
2023-04-26T17:53:11.832Z,67.10
2023-04-26T17:56:04.833Z,68.20
2023-04-26T17:58:56.024Z,67.70
2023-04-26T18:01:47.178Z,68.60
2023-04-26T18:04:39.003Z,69.50
2023-04-26T18:07:30.607Z,70.50
2023-04-26T18:10:22.197Z,70.90
2023-04-26T18:13:14.229Z,71.20
2023-04-26T18:16:05.473Z,71.70
2023-04-26T18:18:57.005Z,73.40
2023-04-26T18:21:50.092Z,75.00
2023-04-26T18:24:41.832Z,75.20
2023-04-26T18:27:33.697Z,75.80
2023-04-26T18:30:24.830Z,75.70
2023-04-26T18:33:16.604Z,76.20
2023-04-26T18:36:09.393Z,77.60
2023-04-26T18:39:01.265Z,79.40
2023-04-26T18:41:53.839Z,80.40
2023-04-26T18:44:45.073Z,80.40
2023-04-26T18:47:36.540Z,81.10
2023-04-26T18:50:28.067Z,83.20
2023-04-26T18:53:20.383Z,83.30
2023-04-26T18:56:12.070Z,83.00
2023-04-26T18:59:03.542Z,83.60
2023-04-26T19:01:54.593Z,84.20
2023-04-26T19:04:47.496Z,86.10
2023-04-26T19:07:39.142Z,85.90
2023-04-26T19:10:30.632Z,87.20
2023-04-26T19:13:22.293Z,88.90
2023-04-26T19:16:13.943Z,89.50
2023-04-26T19:19:06.642Z,90.00
2023-04-26T19:21:58.023Z,90.50
2023-04-26T19:24:52.233Z,91.50
2023-04-26T19:27:43.474Z,92.40
2023-04-26T19:30:34.717Z,93.30
2023-04-26T19:33:26.353Z,94.20
2023-04-26T19:36:17.883Z,95.30
2023-04-26T19:39:09.478Z,96.00
2023-04-26T19:42:01.645Z,96.20
2023-04-26T19:44:53.796Z,96.40
2023-04-26T19:47:45.535Z,96.50
2023-04-26T19:50:41.441Z,96.80
2023-04-26T19:53:32.787Z,97.10
2023-04-26T19:56:24.308Z,98.10
2023-04-26T19:59:15.902Z,98.40
2023-04-26T20:02:07.574Z,98.50
2023-04-26T20:04:58.930Z,98.80
2023-04-26T20:07:50.415Z,99.20
2023-04-26T20:10:43.295Z,99.20
2023-04-26T20:13:34.532Z,99.90
2023-04-26T20:16:26.126Z,99.90
2023-04-26T20:19:17.326Z,99.90
2023-04-26T20:22:08.747Z,99.90
2023-04-26T20:24:59.913Z,99.90
2023-04-26T20:27:51.823Z,99.90
2023-04-26T20:30:44.757Z,99.90
2023-04-26T20:33:36.941Z,99.90
2023-04-26T20:39:09.296Z,99.90
2023-04-26T20:42:00.461Z,99.90
2023-04-26T20:44:52.418Z,99.90
2023-04-26T20:47:43.778Z,99.90
2023-04-26T20:50:36.673Z,99.90
2023-04-26T20:53:28.287Z,99.90
2023-04-26T20:56:19.775Z,99.90
2023-04-26T20:59:11.918Z,99.90
2023-04-26T21:02:03.382Z,99.90
2023-04-26T21:04:55.291Z,99.90
2023-04-26T21:07:47.076Z,99.90
2023-04-26T21:10:38.516Z,99.90
2023-04-26T21:13:31.595Z,99.90
2023-04-26T21:16:23.034Z,99.90
2023-04-26T21:19:14.441Z,99.90
2023-04-26T21:22:05.525Z,99.90
2023-04-26T21:24:57.310Z,99.90
2023-04-26T21:27:49.051Z,99.90
2023-04-26T21:33:20.200Z,99.90
2023-04-26T21:36:12.081Z,99.90
2023-04-26T21:39:03.765Z,99.90
2023-04-26T21:41:55.499Z,99.90
2023-04-26T21:44:46.845Z,99.90
2023-04-26T21:47:38.519Z,99.90
2023-04-26T21:50:30.110Z,99.90
2023-04-26T21:53:21.677Z,99.90
2023-04-26T21:56:14.647Z,99.90
2023-04-26T21:59:06.167Z,99.90
2023-04-26T22:01:57.796Z,99.90
2023-04-26T22:04:49.193Z,99.90
2023-04-26T22:07:40.529Z,99.90
2023-04-26T22:10:31.867Z,99.90
2023-04-26T22:13:23.762Z,99.90
2023-04-26T22:16:14.983Z,99.90
2023-04-26T22:19:06.153Z,99.90
2023-04-26T22:21:57.703Z,99.90
2023-04-26T22:24:49.111Z,99.90
2023-04-26T22:27:40.226Z,99.90
2023-04-26T22:30:31.667Z,99.90
2023-04-26T22:33:22.858Z,99.90
2023-04-26T22:38:53.532Z,99.90
2023-04-26T22:41:44.383Z,99.90
2023-04-26T22:44:35.538Z,99.90
2023-04-26T22:47:27.057Z,99.90
2023-04-26T22:50:18.259Z,99.90
2023-04-26T22:53:09.814Z,99.90
2023-04-26T22:56:01.363Z,99.90
2023-04-26T22:58:52.823Z,99.90
2023-04-26T23:01:44.283Z,99.90
2023-04-26T23:04:35.820Z,99.90
2023-04-26T23:07:29.365Z,99.90
2023-04-26T23:10:21.239Z,99.90
2023-04-26T23:13:12.625Z,99.90
2023-04-26T23:16:04.368Z,99.90
2023-04-26T23:18:55.705Z,99.90
2023-04-26T23:21:46.993Z,99.90
2023-04-26T23:24:38.356Z,99.90
2023-04-26T23:27:29.669Z,99.90
2023-04-26T23:30:21.665Z,99.90
2023-04-26T23:33:13.080Z,99.90
2023-04-26T23:36:04.764Z,99.90
2023-04-26T23:38:56.610Z,99.90
2023-04-26T23:41:48.168Z,99.90
2023-04-26T23:44:39.640Z,99.90
2023-04-26T23:47:31.070Z,99.90
2023-04-26T23:53:02.959Z,99.90
2023-04-26T23:55:54.025Z,99.90
2023-04-26T23:58:45.790Z,99.90
